Time;durP1;ratioP1;P1;durP2;ratioP2;P2;SDS_P1;SDS_P2;PMS_P1;PMS_P2;Temp;Humidity;BMP_temperature;BMP_pressure;BME280_temperature;BME280_humidity;BME280_pressure;Samples;Min_cycle;Max_cycle;Signal;HPM_P1;HPM_P2
2022/05/06 00:01:27;;;;;;;;;18.75;13.50;;;;;;;;5099976;28;11468;-71
2022/05/06 00:03:53;;;;;;;;;6.75;5.00;;;;;;;;5099927;28;11486;-71
2022/05/06 00:06:18;;;;;;;;;9.00;9.00;;;;;;;;5098514;28;23560;-71
2022/05/06 00:08:43;;;;;;;;;8.00;7.50;;;;;;;;5099809;28;10942;-72
2022/05/06 00:11:08;;;;;;;;;7.25;6.00;;;;;;;;5099994;28;11300;-72
2022/05/06 00:13:35;;;;;;;;;8.25;6.25;;;;;;;;5099569;28;11306;-70
2022/05/06 00:16:01;;;;;;;;;6.75;6.00;;;;;;;;5100271;28;11405;-71
2022/05/06 00:18:26;;;;;;;;;6.50;6.00;;;;;;;;5099288;28;11502;-71
2022/05/06 00:20:51;;;;;;;;;7.50;5.25;;;;;;;;5100178;28;8879;-71
2022/05/06 00:23:17;;;;;;;;;6.50;6.50;;;;;;;;5099579;28;11313;-71
2022/05/06 00:25:42;;;;;;;;;7.00;7.00;;;;;;;;5099548;28;11286;-71
2022/05/06 00:28:07;;;;;;;;;5.75;5.75;;;;;;;;5099632;28;11468;-71
2022/05/06 00:30:33;;;;;;;;;9.75;7.00;;;;;;;;5099334;28;11688;-71
2022/05/06 00:32:58;;;;;;;;;7.75;6.50;;;;;;;;5099239;28;11297;-71
2022/05/06 00:35:23;;;;;;;;;3.00;3.00;;;;;;;;5099570;28;12439;-71
2022/05/06 00:37:49;;;;;;;;;2.50;2.50;;;;;;;;5099062;28;11442;-71
2022/05/06 00:40:14;;;;;;;;;5.25;3.00;;;;;;;;5098779;28;11318;-70
2022/05/06 00:42:39;;;;;;;;;2.00;2.00;;;;;;;;5098830;28;11984;-71
2022/05/06 00:45:05;;;;;;;;;6.00;4.50;;;;;;;;5080334;28;10623;-71
2022/05/06 00:47:33;;;;;;;;;3.00;3.00;;;;;;;;5099498;28;11654;-71
2022/05/06 00:50:00;;;;;;;;;4.75;3.00;;;;;;;;5099085;28;12242;-71
2022/05/06 00:52:25;;;;;;;;;3.50;3.00;;;;;;;;5099022;28;11497;-71
2022/05/06 00:54:51;;;;;;;;;2.00;2.00;;;;;;;;5099523;28;11548;-71
2022/05/06 00:57:17;;;;;;;;;2.50;2.00;;;;;;;;5098970;28;10459;-71
2022/05/06 01:02:26;;;;;;;;;3.25;2.50;;;;;;;;5099216;28;8782;-71
2022/05/06 01:04:52;;;;;;;;;4.50;2.00;;;;;;;;5099128;28;11406;-71
2022/05/06 01:07:19;;;;;;;;;3.00;3.00;;;;;;;;5098964;28;11537;-71
2022/05/06 01:09:44;;;;;;;;;4.50;3.50;;;;;;;;5099428;28;10439;-71
2022/05/06 01:12:10;;;;;;;;;3.00;3.00;;;;;;;;5098386;28;11468;-71
2022/05/06 01:14:35;;;;;;;;;4.00;2.00;;;;;;;;5080143;28;15038;-71
2022/05/06 01:17:03;;;;;;;;;2.25;2.25;;;;;;;;5098117;28;8803;-71
2022/05/06 01:19:29;;;;;;;;;2.75;2.00;;;;;;;;5098797;28;11598;-71
2022/05/06 01:21:55;;;;;;;;;2.00;2.00;;;;;;;;5098784;28;11461;-71
2022/05/06 01:24:21;;;;;;;;;4.25;2.25;;;;;;;;5098425;28;9143;-71
2022/05/06 01:26:49;;;;;;;;;6.50;5.00;;;;;;;;5097838;28;12878;-71
2022/05/06 01:29:14;;;;;;;;;4.00;4.00;;;;;;;;5098645;28;11395;-71
2022/05/06 01:31:41;;;;;;;;;5.25;3.00;;;;;;;;5098264;28;11405;-71
2022/05/06 01:34:06;;;;;;;;;5.25;3.00;;;;;;;;5097968;28;10357;-71
2022/05/06 01:36:32;;;;;;;;;2.75;2.75;;;;;;;;5099260;28;12204;-71
2022/05/06 01:39:00;;;;;;;;;2.00;2.00;;;;;;;;5098598;28;11451;-71
2022/05/06 01:41:31;;;;;;;;;5.50;2.25;;;;;;;;5098495;28;11498;-71
2022/05/06 01:43:59;;;;;;;;;3.00;3.00;;;;;;;;5097971;28;12191;-70
2022/05/06 01:46:25;;;;;;;;;3.00;2.00;;;;;;;;5098154;28;12008;-70
2022/05/06 01:48:51;;;;;;;;;5.50;4.00;;;;;;;;5098204;28;11443;-72
2022/05/06 01:51:17;;;;;;;;;4.50;4.50;;;;;;;;5098884;28;11482;-71
2022/05/06 01:53:43;;;;;;;;;2.00;2.00;;;;;;;;5098372;28;12974;-72
2022/05/06 01:56:08;;;;;;;;;3.50;3.50;;;;;;;;5098549;28;11518;-71
2022/05/06 01:58:34;;;;;;;;;4.00;2.25;;;;;;;;5098170;28;11557;-72
2022/05/06 02:00:59;;;;;;;;;5.25;4.00;;;;;;;;5098383;28;11366;-71
2022/05/06 02:06:09;;;;;;;;;11.00;5.50;;;;;;;;5098726;28;11354;-70
2022/05/06 02:08:34;;;;;;;;;6.00;6.00;;;;;;;;5097986;28;16463;-70
2022/05/06 02:11:01;;;;;;;;;5.25;5.25;;;;;;;;5097929;28;22336;-71
2022/05/06 02:13:26;;;;;;;;;7.00;6.00;;;;;;;;5097674;28;11536;-71
2022/05/06 02:15:51;;;;;;;;;4.75;4.50;;;;;;;;5097420;28;11417;-71
2022/05/06 02:18:17;;;;;;;;;5.00;5.00;;;;;;;;5078683;28;15469;-70
2022/05/06 02:20:42;;;;;;;;;2.50;2.25;;;;;;;;5079713;28;11656;-70
2022/05/06 02:23:08;;;;;;;;;6.00;3.50;;;;;;;;5098267;28;11302;-70
2022/05/06 02:25:34;;;;;;;;;6.25;4.50;;;;;;;;5098024;28;11362;-70
2022/05/06 02:28:00;;;;;;;;;2.00;0.25;;;;;;;;5097974;28;11461;-70
2022/05/06 02:33:15;;;;;;;;;3.50;3.00;;;;;;;;5101924;28;11359;-71
2022/05/06 02:35:41;;;;;;;;;7.00;5.00;;;;;;;;5101308;28;11426;-71
2022/05/06 02:38:08;;;;;;;;;5.00;5.00;;;;;;;;5101108;28;11390;-72
2022/05/06 02:40:37;;;;;;;;;6.75;5.00;;;;;;;;5101648;28;11381;-73
2022/05/06 02:43:03;;;;;;;;;3.50;3.50;;;;;;;;5101517;28;12468;-72
2022/05/06 02:45:28;;;;;;;;;8.75;5.00;;;;;;;;5101587;28;11527;-71
2022/05/06 02:47:53;;;;;;;;;4.00;4.00;;;;;;;;5101754;28;12136;-71
2022/05/06 02:50:19;;;;;;;;;6.00;3.00;;;;;;;;5101341;28;10279;-70
2022/05/06 02:52:44;;;;;;;;;7.50;3.00;;;;;;;;5101344;28;8818;-70
2022/05/06 02:55:10;;;;;;;;;5.50;3.00;;;;;;;;5101258;28;9247;-70
2022/05/06 02:57:35;;;;;;;;;3.50;3.50;;;;;;;;5100411;28;8834;-70
2022/05/06 03:00:01;;;;;;;;;5.50;5.00;;;;;;;;5100733;28;11316;-70
2022/05/06 03:02:26;;;;;;;;;6.00;5.00;;;;;;;;5100663;28;11317;-71
2022/05/06 03:04:52;;;;;;;;;2.00;2.00;;;;;;;;5101287;28;10145;-70
2022/05/06 03:07:17;;;;;;;;;3.00;3.00;;;;;;;;5082725;28;8928;-71
2022/05/06 03:09:42;;;;;;;;;4.00;3.50;;;;;;;;5100841;28;8813;-69
2022/05/06 03:12:08;;;;;;;;;2.00;1.00;;;;;;;;5100848;28;11317;-70
2022/05/06 03:14:34;;;;;;;;;2.50;2.50;;;;;;;;5100855;28;11427;-70
2022/05/06 03:16:59;;;;;;;;;5.75;2.50;;;;;;;;5100840;28;10803;-70
2022/05/06 03:19:24;;;;;;;;;1.25;1.25;;;;;;;;5100594;28;8802;-70
2022/05/06 03:21:51;;;;;;;;;2.75;2.00;;;;;;;;5081977;28;11640;-70
2022/05/06 03:24:17;;;;;;;;;5.00;3.00;;;;;;;;5101317;28;11427;-70
2022/05/06 03:26:42;;;;;;;;;6.00;2.25;;;;;;;;5100593;28;11430;-70
2022/05/06 03:29:08;;;;;;;;;4.00;3.00;;;;;;;;5082087;28;11642;-70
2022/05/06 03:31:33;;;;;;;;;2.75;2.75;;;;;;;;5100486;28;11311;-70
2022/05/06 03:33:59;;;;;;;;;4.00;4.00;;;;;;;;5100756;28;11574;-70
2022/05/06 03:36:24;;;;;;;;;2.00;2.00;;;;;;;;5100177;28;12599;-70
2022/05/06 03:38:50;;;;;;;;;4.75;2.25;;;;;;;;5099973;28;8802;-71
2022/05/06 03:41:15;;;;;;;;;3.00;3.00;;;;;;;;5080920;28;13512;-70
2022/05/06 03:43:40;;;;;;;;;6.50;3.75;;;;;;;;5099762;28;11319;-71
2022/05/06 03:46:06;;;;;;;;;5.75;5.75;;;;;;;;5100218;28;11293;-71
2022/05/06 03:48:31;;;;;;;;;1.50;1.50;;;;;;;;5099852;28;10488;-71
2022/05/06 03:53:40;;;;;;;;;2.00;2.00;;;;;;;;5099934;28;11596;-71
2022/05/06 03:56:06;;;;;;;;;2.00;2.00;;;;;;;;5099640;28;11495;-70
2022/05/06 03:58:32;;;;;;;;;3.00;3.00;;;;;;;;5100426;28;8892;-71
2022/05/06 04:00:57;;;;;;;;;3.50;2.50;;;;;;;;5100302;28;8763;-71
2022/05/06 04:03:23;;;;;;;;;5.25;3.50;;;;;;;;5099969;28;12268;-71
2022/05/06 04:05:48;;;;;;;;;5.75;3.00;;;;;;;;5100220;28;10266;-71
2022/05/06 04:08:13;;;;;;;;;6.50;5.00;;;;;;;;5100020;28;8825;-70
2022/05/06 04:10:39;;;;;;;;;3.50;2.00;;;;;;;;5099700;28;10319;-70
2022/05/06 04:13:04;;;;;;;;;7.00;7.00;;;;;;;;5099109;28;8811;-70
2022/05/06 04:15:29;;;;;;;;;5.75;3.00;;;;;;;;5099476;28;10383;-70
2022/05/06 04:17:55;;;;;;;;;5.00;3.00;;;;;;;;5099838;28;10267;-70
2022/05/06 04:25:48;;;;;;;;;5.25;2.75;;;;;;;;5099765;28;11437;-71
2022/05/06 04:28:13;;;;;;;;;7.50;5.75;;;;;;;;5099245;28;11545;-71
2022/05/06 04:30:39;;;;;;;;;2.25;2.00;;;;;;;;5099424;28;10277;-71
2022/05/06 04:33:04;;;;;;;;;4.00;3.00;;;;;;;;5099523;28;12485;-71
2022/05/06 04:35:29;;;;;;;;;2.75;2.75;;;;;;;;5099575;28;10335;-71
2022/05/06 04:37:55;;;;;;;;;3.00;3.00;;;;;;;;5099384;28;11312;-71
2022/05/06 04:40:20;;;;;;;;;6.50;2.25;;;;;;;;5080854;28;11853;-71
2022/05/06 04:42:45;;;;;;;;;5.75;5.00;;;;;;;;5098492;28;11804;-71
2022/05/06 04:45:11;;;;;;;;;3.75;3.00;;;;;;;;5098519;28;11298;-70
2022/05/06 04:47:37;;;;;;;;;2.00;2.00;;;;;;;;5098782;28;8841;-71
2022/05/06 04:50:03;;;;;;;;;3.00;3.00;;;;;;;;5099390;28;10292;-70
2022/05/06 04:52:28;;;;;;;;;7.00;5.50;;;;;;;;5079963;28;11098;-70
2022/05/06 04:54:53;;;;;;;;;3.50;3.50;;;;;;;;5098971;28;11470;-71
2022/05/06 04:57:18;;;;;;;;;5.50;5.50;;;;;;;;5098823;28;10950;-70
2022/05/06 04:59:47;;;;;;;;;4.00;4.00;;;;;;;;5098972;28;8786;-71
2022/05/06 05:02:13;;;;;;;;;5.00;3.00;;;;;;;;5099256;28;11387;-71
2022/05/06 05:04:39;;;;;;;;;5.25;4.00;;;;;;;;5099034;28;11446;-71
2022/05/06 05:07:04;;;;;;;;;5.00;5.00;;;;;;;;5098733;28;10544;-71
2022/05/06 05:09:30;;;;;;;;;6.00;6.00;;;;;;;;5097907;28;9494;-71
2022/05/06 05:11:55;;;;;;;;;7.00;4.00;;;;;;;;5098625;28;9147;-68
2022/05/06 05:14:21;;;;;;;;;5.00;5.00;;;;;;;;5098333;28;8941;-68
2022/05/06 05:16:48;;;;;;;;;6.00;5.00;;;;;;;;5098553;28;8838;-68
2022/05/06 05:19:13;;;;;;;;;10.75;6.50;;;;;;;;5099087;28;8775;-69
2022/05/06 05:21:39;;;;;;;;;6.75;4.50;;;;;;;;5098641;28;21717;-69
2022/05/06 05:24:04;;;;;;;;;6.00;5.00;;;;;;;;5098388;28;21455;-69
2022/05/06 05:26:29;;;;;;;;;7.25;6.00;;;;;;;;5098374;28;10279;-68
2022/05/06 05:28:55;;;;;;;;;7.00;5.75;;;;;;;;5098944;28;11391;-69
2022/05/06 05:31:20;;;;;;;;;6.75;6.00;;;;;;;;5091440;28;10266;-70
2022/05/06 05:33:46;;;;;;;;;7.00;5.00;;;;;;;;5083385;28;11314;-72
2022/05/06 05:36:11;;;;;;;;;8.00;7.00;;;;;;;;5078690;28;10980;-73
2022/05/06 05:38:38;;;;;;;;;11.75;7.00;;;;;;;;5095509;28;8899;-72
2022/05/06 05:41:04;;;;;;;;;6.00;6.00;;;;;;;;5097907;28;16563;-71
2022/05/06 05:48:57;;;;;;;;;5.75;5.00;;;;;;;;5094646;28;11401;-68
2022/05/06 05:51:22;;;;;;;;;7.00;6.50;;;;;;;;5098081;28;12625;-70
2022/05/06 05:53:47;;;;;;;;;9.00;7.00;;;;;;;;5097520;28;11511;-70
2022/05/06 05:56:12;;;;;;;;;6.00;6.00;;;;;;;;5097268;28;11592;-70
2022/05/06 05:58:38;;;;;;;;;8.25;6.50;;;;;;;;5097079;28;8807;-70
2022/05/06 06:01:04;;;;;;;;;7.00;7.00;;;;;;;;5096790;28;11533;-67
2022/05/06 06:03:29;;;;;;;;;7.00;6.00;;;;;;;;5094451;28;11667;-68
2022/05/06 06:05:54;;;;;;;;;5.00;5.00;;;;;;;;5098358;28;11473;-68
2022/05/06 06:08:21;;;;;;;;;7.75;6.50;;;;;;;;5099753;28;8822;-70
2022/05/06 06:10:47;;;;;;;;;6.25;5.00;;;;;;;;5080945;28;11804;-69
2022/05/06 06:13:12;;;;;;;;;9.25;6.00;;;;;;;;5099067;28;11491;-68
2022/05/06 06:15:37;;;;;;;;;5.25;5.25;;;;;;;;5099597;28;8798;-68
2022/05/06 06:18:03;;;;;;;;;7.00;6.00;;;;;;;;5098884;28;11440;-69
2022/05/06 06:20:29;;;;;;;;;5.25;5.00;;;;;;;;5097860;28;11824;-68
2022/05/06 06:22:54;;;;;;;;;6.00;5.00;;;;;;;;5098418;28;10308;-68
2022/05/06 06:25:19;;;;;;;;;3.75;3.00;;;;;;;;5098780;28;8965;-67
2022/05/06 06:27:45;;;;;;;;;5.00;3.00;;;;;;;;5097334;28;10459;-69
2022/05/06 06:30:10;;;;;;;;;7.50;6.00;;;;;;;;5098790;28;9304;-68
2022/05/06 06:32:36;;;;;;;;;5.50;4.00;;;;;;;;5098523;28;10334;-69
2022/05/06 06:35:01;;;;;;;;;3.75;3.50;;;;;;;;5096819;28;8782;-71
2022/05/06 06:37:27;;;;;;;;;5.00;5.00;;;;;;;;5081389;28;11756;-68
2022/05/06 06:39:53;;;;;;;;;5.00;3.00;;;;;;;;5098229;28;11298;-68
2022/05/06 06:42:18;;;;;;;;;2.00;1.50;;;;;;;;5096738;28;8831;-68
2022/05/06 06:44:43;;;;;;;;;5.00;2.25;;;;;;;;5099964;28;12581;-69
2022/05/06 06:47:09;;;;;;;;;2.00;2.00;;;;;;;;5099316;28;11315;-69
2022/05/06 06:49:34;;;;;;;;;2.00;2.00;;;;;;;;5099256;28;11489;-68
2022/05/06 06:52:00;;;;;;;;;2.50;2.50;;;;;;;;5099662;28;8911;-68
2022/05/06 06:54:25;;;;;;;;;1.50;1.50;;;;;;;;5099354;28;8948;-68
2022/05/06 06:56:50;;;;;;;;;1.25;1.25;;;;;;;;5098945;28;10146;-69
2022/05/06 06:59:16;;;;;;;;;2.00;2.00;;;;;;;;5098709;28;8806;-69
2022/05/06 07:01:41;;;;;;;;;1.00;1.00;;;;;;;;5079407;28;13762;-69
2022/05/06 07:04:06;;;;;;;;;1.75;0.75;;;;;;;;5098837;28;9587;-69
2022/05/06 07:11:59;;;;;;;;;1.00;1.00;;;;;;;;5098914;28;12103;-70
2022/05/06 07:14:28;;;;;;;;;1.75;1.00;;;;;;;;5099439;28;11411;-70
2022/05/06 07:16:54;;;;;;;;;3.00;2.00;;;;;;;;5099218;28;9752;-71
2022/05/06 07:19:20;;;;;;;;;2.75;1.75;;;;;;;;5094599;28;11454;-70
2022/05/06 07:21:46;;;;;;;;;5.00;5.00;;;;;;;;5096232;28;11464;-70
2022/05/06 07:24:11;;;;;;;;;14.50;11.00;;;;;;;;5099789;28;12892;-70
2022/05/06 07:26:36;;;;;;;;;12.00;12.00;;;;;;;;5099513;28;22328;-70
2022/05/06 07:29:02;;;;;;;;;3.00;3.00;;;;;;;;5100139;28;10404;-70
2022/05/06 07:31:28;;;;;;;;;1.25;1.00;;;;;;;;5099066;28;22121;-72
2022/05/06 07:33:54;;;;;;;;;2.75;2.00;;;;;;;;5100713;28;10494;-70
2022/05/06 07:36:19;;;;;;;;;1.00;1.00;;;;;;;;5100229;28;9728;-70
2022/05/06 07:38:44;;;;;;;;;2.00;2.00;;;;;;;;5098362;28;10303;-70
2022/05/06 07:41:10;;;;;;;;;2.50;2.00;;;;;;;;5099381;28;8794;-70
2022/05/06 07:43:36;;;;;;;;;6.25;1.50;;;;;;;;5099465;28;8921;-69
2022/05/06 07:46:01;;;;;;;;;2.00;2.00;;;;;;;;5098299;28;11418;-69
2022/05/06 07:48:27;;;;;;;;;3.00;3.00;;;;;;;;5098886;28;11476;-69
2022/05/06 07:50:52;;;;;;;;;2.00;2.00;;;;;;;;5099887;28;8833;-69
2022/05/06 07:53:17;;;;;;;;;1.50;1.25;;;;;;;;5099271;28;8838;-69
2022/05/06 07:55:43;;;;;;;;;5.00;5.00;;;;;;;;5099508;28;11661;-69
2022/05/06 07:58:09;;;;;;;;;8.25;5.25;;;;;;;;5099680;28;11308;-68
2022/05/06 08:00:34;;;;;;;;;9.00;9.00;;;;;;;;5099390;28;11311;-70
2022/05/06 08:05:46;;;;;;;;;5.00;3.25;;;;;;;;5099692;28;11357;-70
2022/05/06 08:08:11;;;;;;;;;6.00;4.00;;;;;;;;5099721;28;11370;-70
2022/05/06 08:10:36;;;;;;;;;5.25;5.00;;;;;;;;5099736;28;11379;-71
2022/05/06 08:13:02;;;;;;;;;8.00;6.00;;;;;;;;5099349;28;10250;-73
2022/05/06 08:15:27;;;;;;;;;5.00;4.00;;;;;;;;5099662;28;11362;-70
2022/05/06 08:17:53;;;;;;;;;6.00;5.50;;;;;;;;5099536;28;9053;-70
2022/05/06 08:20:18;;;;;;;;;5.00;4.00;;;;;;;;5099459;28;11336;-70
2022/05/06 08:22:43;;;;;;;;;3.00;2.50;;;;;;;;5099666;28;11361;-70
2022/05/06 08:25:09;;;;;;;;;2.50;2.50;;;;;;;;5099086;28;11295;-70
2022/05/06 08:27:38;;;;;;;;;2.25;2.25;;;;;;;;5098833;28;8793;-70
2022/05/06 08:30:04;;;;;;;;;3.00;3.00;;;;;;;;5099424;28;8771;-69
2022/05/06 08:32:30;;;;;;;;;3.00;3.00;;;;;;;;5098558;28;11445;-68
2022/05/06 08:34:55;;;;;;;;;6.50;5.50;;;;;;;;5098753;28;11486;-69
2022/05/06 08:37:21;;;;;;;;;4.25;1.75;;;;;;;;5098186;28;11362;-69
2022/05/06 08:39:47;;;;;;;;;3.00;3.00;;;;;;;;5096338;28;11553;-69
2022/05/06 08:42:14;;;;;;;;;6.00;4.00;;;;;;;;5093177;28;12436;-69
2022/05/06 08:52:53;;;;;;;;;7.00;3.00;;;;;;;;5098690;28;12174;-69
2022/05/06 08:55:19;;;;;;;;;4.50;4.00;;;;;;;;5098941;28;11492;-70
2022/05/06 08:57:45;;;;;;;;;2.00;2.00;;;;;;;;5098934;28;11371;-70
2022/05/06 09:00:10;;;;;;;;;1.50;1.50;;;;;;;;5098052;28;10352;-71
2022/05/06 09:02:39;;;;;;;;;4.00;3.00;;;;;;;;5085136;28;11448;-71
2022/05/06 09:05:14;;;;;;;;;4.00;3.00;;;;;;;;5097712;28;11829;-70
2022/05/06 09:07:41;;;;;;;;;3.00;2.00;;;;;;;;5098044;28;11372;-70
2022/05/06 09:10:14;;;;;;;;;1.00;1.00;;;;;;;;5098077;28;12149;-70
2022/05/06 09:12:44;;;;;;;;;1.00;1.00;;;;;;;;5096494;28;11527;-71
2022/05/06 09:17:56;;;;;;;;;1.50;1.00;;;;;;;;5097488;28;10870;-72
2022/05/06 09:20:22;;;;;;;;;1.00;1.00;;;;;;;;5094717;28;11175;-71
2022/05/06 09:22:50;;;;;;;;;2.75;1.00;;;;;;;;5098129;28;11185;-70
2022/05/06 09:25:34;;;;;;;;;1.00;1.00;;;;;;;;5080004;28;9221;-70
2022/05/06 09:27:59;;;;;;;;;1.75;1.00;;;;;;;;5097820;28;11396;-70
2022/05/06 09:30:25;;;;;;;;;0.75;0.75;;;;;;;;5098296;28;11100;-70
2022/05/06 09:32:50;;;;;;;;;1.75;1.00;;;;;;;;5079379;28;13652;-70
2022/05/06 09:35:15;;;;;;;;;2.25;1.00;;;;;;;;5097444;28;11508;-70
2022/05/06 09:37:42;;;;;;;;;0.00;0.00;;;;;;;;5078611;28;8932;-70
2022/05/06 09:40:20;;;;;;;;;1.25;0.50;;;;;;;;5093868;28;10434;-72
2022/05/06 09:42:54;;;;;;;;;0.00;0.00;;;;;;;;5092681;28;11903;-70
2022/05/06 09:45:28;;;;;;;;;0.00;0.00;;;;;;;;5094039;28;11716;-69
2022/05/06 09:47:58;;;;;;;;;1.00;1.00;;;;;;;;5095709;28;10926;-70
2022/05/06 09:50:33;;;;;;;;;0.00;0.00;;;;;;;;5077764;28;12141;-71
2022/05/06 09:53:03;;;;;;;;;2.00;0.00;;;;;;;;5093796;28;11101;-70
2022/05/06 09:55:29;;;;;;;;;1.00;1.00;;;;;;;;5096409;28;11255;-71
2022/05/06 09:57:55;;;;;;;;;1.00;0.00;;;;;;;;5092229;28;11372;-72
2022/05/06 10:00:21;;;;;;;;;1.25;0.25;;;;;;;;5078031;28;11086;-72
2022/05/06 10:02:46;;;;;;;;;1.00;1.00;;;;;;;;5078412;28;11405;-70
2022/05/06 10:05:12;;;;;;;;;0.00;0.00;;;;;;;;5078039;28;10257;-69
2022/05/06 10:07:40;;;;;;;;;0.00;0.00;;;;;;;;5078000;28;9802;-69
2022/05/06 10:10:07;;;;;;;;;1.00;1.00;;;;;;;;5077134;28;10962;-69
2022/05/06 10:12:41;;;;;;;;;2.00;1.00;;;;;;;;5077195;28;11176;-69
2022/05/06 10:15:08;;;;;;;;;1.00;1.00;;;;;;;;5078048;28;11139;-69
2022/05/06 10:17:49;;;;;;;;;1.00;1.00;;;;;;;;5077218;28;11029;-69
2022/05/06 10:20:33;;;;;;;;;0.25;0.00;;;;;;;;5077453;28;11151;-70
2022/05/06 10:22:59;;;;;;;;;1.25;1.00;;;;;;;;5077332;28;11191;-68
2022/05/06 10:25:43;;;;;;;;;1.00;1.00;;;;;;;;5076764;28;11942;-69
2022/05/06 10:34:16;;;;;;;;;1.50;1.00;;;;;;;;5097679;28;11348;-70
2022/05/06 10:36:51;;;;;;;;;3.75;2.00;;;;;;;;5084585;28;12426;-71
2022/05/06 10:39:22;;;;;;;;;4.00;1.00;;;;;;;;5077390;28;11435;-70
2022/05/06 10:42:06;;;;;;;;;3.75;1.75;;;;;;;;5077060;28;11498;-72
2022/05/06 10:44:48;;;;;;;;;2.25;2.25;;;;;;;;5077228;28;11451;-72
2022/05/06 10:47:13;;;;;;;;;4.00;2.00;;;;;;;;5077018;28;11212;-72
2022/05/06 10:49:39;;;;;;;;;3.00;2.75;;;;;;;;5076955;28;11302;-72
2022/05/06 10:52:26;;;;;;;;;4.25;4.25;;;;;;;;5096810;28;11459;-71
2022/05/06 10:54:54;;;;;;;;;4.25;3.00;;;;;;;;5100867;28;10530;-71
2022/05/06 10:57:23;;;;;;;;;2.75;2.75;;;;;;;;5100337;28;11109;-71
2022/05/06 10:59:51;;;;;;;;;2.25;2.25;;;;;;;;5100362;28;11567;-71
2022/05/06 11:02:17;;;;;;;;;2.00;2.00;;;;;;;;5101394;28;10911;-70
2022/05/06 11:04:52;;;;;;;;;2.50;2.50;;;;;;;;5100672;28;10936;-71
2022/05/06 11:07:18;;;;;;;;;3.50;3.50;;;;;;;;5101089;28;10900;-72
2022/05/06 11:09:43;;;;;;;;;1.00;1.00;;;;;;;;5100806;28;10866;-71
2022/05/06 11:12:09;;;;;;;;;2.00;2.00;;;;;;;;5100510;28;11342;-71
2022/05/06 11:14:34;;;;;;;;;2.50;2.50;;;;;;;;5099072;28;8854;-72
2022/05/06 11:17:15;;;;;;;;;3.00;3.00;;;;;;;;5099338;28;8841;-72
2022/05/06 11:19:40;;;;;;;;;3.00;3.00;;;;;;;;5096534;28;11462;-72
2022/05/06 11:22:06;;;;;;;;;2.00;2.00;;;;;;;;5097110;28;10959;-72
2022/05/06 11:24:32;;;;;;;;;1.00;1.00;;;;;;;;5097222;28;9058;-72
2022/05/06 11:27:11;;;;;;;;;2.00;2.00;;;;;;;;5097899;28;11473;-71
2022/05/06 11:30:02;;;;;;;;;2.00;2.00;;;;;;;;5097672;28;8774;-71
2022/05/06 11:32:28;;;;;;;;;3.00;2.00;;;;;;;;5072429;28;10898;-71
2022/05/06 11:35:06;;;;;;;;;2.00;2.00;;;;;;;;5098992;28;10682;-69
2022/05/06 11:37:34;;;;;;;;;3.50;2.00;;;;;;;;5096008;28;10954;-69
2022/05/06 11:42:43;;;;;;;;;1.00;1.00;;;;;;;;5097359;28;10641;-69
2022/05/06 11:48:02;;;;;;;;;0.00;0.00;;;;;;;;5095993;28;11330;-75
2022/05/06 11:50:28;;;;;;;;;1.75;1.75;;;;;;;;5097232;28;10699;-72
2022/05/06 11:52:54;;;;;;;;;1.25;0.50;;;;;;;;5098566;28;11297;-72
2022/05/06 11:55:19;;;;;;;;;0.00;0.00;;;;;;;;5096461;28;10349;-73
2022/05/06 11:57:44;;;;;;;;;1.00;1.00;;;;;;;;5097979;28;11870;-71
2022/05/06 12:00:13;;;;;;;;;1.00;1.00;;;;;;;;5097978;28;8814;-71
2022/05/06 12:02:46;;;;;;;;;1.50;0.75;;;;;;;;5098716;28;8775;-71
2022/05/06 12:05:12;;;;;;;;;3.00;1.00;;;;;;;;5076671;28;12334;-71
2022/05/06 12:07:55;;;;;;;;;2.00;0.25;;;;;;;;5097162;28;11288;-69
2022/05/06 12:10:24;;;;;;;;;1.00;1.00;;;;;;;;5094091;28;11615;-70
2022/05/06 12:12:52;;;;;;;;;1.00;0.75;;;;;;;;5097919;28;11437;-71
2022/05/06 12:15:18;;;;;;;;;1.50;0.00;;;;;;;;5097222;28;10629;-71
2022/05/06 12:17:43;;;;;;;;;0.00;0.00;;;;;;;;5097715;28;10610;-71
2022/05/06 12:20:28;;;;;;;;;1.00;1.00;;;;;;;;5098885;28;8814;-72
2022/05/06 12:22:59;;;;;;;;;0.50;0.50;;;;;;;;5098821;28;9802;-71
2022/05/06 12:25:25;;;;;;;;;1.00;1.00;;;;;;;;5099462;28;11509;-70
2022/05/06 12:28:03;;;;;;;;;0.00;0.00;;;;;;;;5099033;28;12372;-71
2022/05/06 12:30:29;;;;;;;;;3.75;1.00;;;;;;;;5081063;28;9141;-71
2022/05/06 12:33:04;;;;;;;;;1.00;1.00;;;;;;;;5099224;28;10791;-71
2022/05/06 12:35:29;;;;;;;;;0.00;0.00;;;;;;;;5099304;28;9618;-70
2022/05/06 12:37:55;;;;;;;;;0.00;0.00;;;;;;;;5098934;28;10465;-69
2022/05/06 12:40:20;;;;;;;;;0.00;0.00;;;;;;;;5099723;28;9497;-70
2022/05/06 12:43:02;;;;;;;;;0.00;0.00;;;;;;;;5096897;28;11461;-70
2022/05/06 12:45:27;;;;;;;;;0.00;0.00;;;;;;;;5096073;28;8914;-70
2022/05/06 12:50:36;;;;;;;;;1.00;1.00;;;;;;;;5097104;28;8786;-70
2022/05/06 12:53:01;;;;;;;;;0.00;0.00;;;;;;;;5097072;28;10663;-71
2022/05/06 12:55:27;;;;;;;;;1.75;1.75;;;;;;;;5097202;28;9396;-73
2022/05/06 12:57:52;;;;;;;;;0.00;0.00;;;;;;;;5096515;28;11548;-72
2022/05/06 13:00:17;;;;;;;;;0.00;0.00;;;;;;;;5077037;28;11642;-71
2022/05/06 13:02:42;;;;;;;;;0.00;0.00;;;;;;;;5095512;28;8818;-72
2022/05/06 13:28:49;;;;;;;;;0.00;0.00;;;;;;;;5047597;27;3461812;-70
2022/05/06 13:31:14;;;;;;;;;0.00;0.00;;;;;;;;5156466;27;20648;-72
2022/05/06 13:33:39;;;;;;;;;1.00;0.00;;;;;;;;5156224;27;10572;-69
2022/05/06 13:36:05;;;;;;;;;0.00;0.00;;;;;;;;5156173;27;8798;-71
2022/05/06 13:38:30;;;;;;;;;0.25;0.25;;;;;;;;5154230;27;8832;-70
2022/05/06 13:40:55;;;;;;;;;0.00;0.00;;;;;;;;5155941;27;8808;-70
2022/05/06 13:43:20;;;;;;;;;0.00;0.00;;;;;;;;5156209;27;8766;-71
2022/05/06 13:45:46;;;;;;;;;0.75;0.75;;;;;;;;5157075;27;8798;-71
2022/05/06 13:48:11;;;;;;;;;0.25;0.00;;;;;;;;5156173;27;8797;-71
2022/05/06 13:50:36;;;;;;;;;0.00;0.00;;;;;;;;5137649;27;10483;-71
2022/05/06 13:53:02;;;;;;;;;2.00;1.00;;;;;;;;5156043;27;8901;-70
2022/05/06 13:59:03;;;;;;;;;1.00;0.00;;;;;;;;5156546;27;8793;-71
2022/05/06 14:00:57;;;;;;;;;0.25;0.25;;;;;;;;5155860;27;10407;-77
2022/05/06 14:03:25;;;;;;;;;0.00;0.00;;;;;;;;5156306;27;10473;-71
2022/05/06 14:05:50;;;;;;;;;1.25;1.25;;;;;;;;5157037;27;8782;-71
2022/05/06 14:08:16;;;;;;;;;1.00;1.00;;;;;;;;5155523;27;11310;-72
2022/05/06 14:10:41;;;;;;;;;0.25;0.25;;;;;;;;5156022;27;8790;-73
2022/05/06 14:13:07;;;;;;;;;1.00;1.00;;;;;;;;5156047;27;11297;-71
2022/05/06 14:15:34;;;;;;;;;1.00;1.00;;;;;;;;5136991;27;11717;-71
2022/05/06 14:17:59;;;;;;;;;1.00;1.00;;;;;;;;5155619;27;8771;-71
2022/05/06 14:20:25;;;;;;;;;1.00;0.00;;;;;;;;5155775;27;10835;-72
2022/05/06 14:22:50;;;;;;;;;1.00;1.00;;;;;;;;5155813;27;8963;-72
2022/05/06 14:25:16;;;;;;;;;1.00;1.00;;;;;;;;5156698;27;8782;-71
2022/05/06 14:27:42;;;;;;;;;1.00;1.00;;;;;;;;5156390;27;8797;-72
2022/05/06 14:30:09;;;;;;;;;2.00;1.00;;;;;;;;5156576;27;11626;-72
2022/05/06 14:32:34;;;;;;;;;24.25;22.25;;;;;;;;5155635;27;10840;-72
2022/05/06 14:35:16;;;;;;;;;3.00;3.00;;;;;;;;5154854;27;22731;-72
2022/05/06 14:37:41;;;;;;;;;2.50;1.00;;;;;;;;5155800;27;22949;-71
2022/05/06 14:40:07;;;;;;;;;0.00;0.00;;;;;;;;5142402;27;11497;-72
2022/05/06 14:42:32;;;;;;;;;0.00;0.00;;;;;;;;5142478;27;11970;-69
2022/05/06 14:44:59;;;;;;;;;1.00;1.00;;;;;;;;5142681;27;8920;-68
2022/05/06 14:47:24;;;;;;;;;1.00;1.00;;;;;;;;5141626;27;8912;-73
2022/05/06 14:49:50;;;;;;;;;1.50;1.00;;;;;;;;5140964;27;10808;-73
2022/05/06 14:52:16;;;;;;;;;2.00;0.00;;;;;;;;5139918;27;8863;-72
2022/05/06 14:54:41;;;;;;;;;2.00;1.00;;;;;;;;5141432;27;11479;-76
2022/05/06 14:57:06;;;;;;;;;3.00;1.75;;;;;;;;5141915;27;10883;-76
2022/05/06 14:59:32;;;;;;;;;1.00;1.00;;;;;;;;5142220;27;11529;-71
2022/05/06 15:01:57;;;;;;;;;2.75;1.00;;;;;;;;5141252;27;11509;-72
2022/05/06 15:04:23;;;;;;;;;0.25;0.25;;;;;;;;5142267;27;10360;-71
2022/05/06 15:06:48;;;;;;;;;0.75;0.00;;;;;;;;5141348;27;11742;-72
2022/05/06 15:09:19;;;;;;;;;1.00;0.00;;;;;;;;5142277;27;10054;-71
2022/05/06 15:11:44;;;;;;;;;1.00;1.00;;;;;;;;5142042;27;9038;-71
2022/05/06 15:14:09;;;;;;;;;0.75;0.75;;;;;;;;5142282;27;10927;-71
2022/05/06 15:16:35;;;;;;;;;2.00;0.00;;;;;;;;5142133;27;11304;-71
2022/05/06 15:21:44;;;;;;;;;0.25;0.25;;;;;;;;5142673;27;8751;-71
2022/05/06 15:24:09;;;;;;;;;0.00;0.00;;;;;;;;5142268;27;11182;-71
2022/05/06 15:26:34;;;;;;;;;0.00;0.00;;;;;;;;5141591;27;8794;-71
2022/05/06 15:29:00;;;;;;;;;0.00;0.00;;;;;;;;5142538;27;8790;-71
2022/05/06 15:31:25;;;;;;;;;1.00;1.00;;;;;;;;5141798;27;8790;-72
2022/05/06 15:33:50;;;;;;;;;0.00;0.00;;;;;;;;5141559;27;8798;-72
2022/05/06 15:36:15;;;;;;;;;0.00;0.00;;;;;;;;5141629;27;8806;-71
2022/05/06 15:38:41;;;;;;;;;0.00;0.00;;;;;;;;5141754;27;8809;-71
2022/05/06 15:41:06;;;;;;;;;1.50;0.00;;;;;;;;5141652;27;8816;-71
2022/05/06 15:43:33;;;;;;;;;0.00;0.00;;;;;;;;5141238;27;8886;-71
2022/05/06 15:45:59;;;;;;;;;0.00;0.00;;;;;;;;5142090;27;9293;-71
2022/05/06 15:48:24;;;;;;;;;1.00;1.00;;;;;;;;5122868;27;10869;-71
2022/05/06 15:50:49;;;;;;;;;1.00;0.75;;;;;;;;5140594;27;8798;-71
2022/05/06 15:53:15;;;;;;;;;0.00;0.00;;;;;;;;5122581;27;11377;-71
2022/05/06 15:55:41;;;;;;;;;0.25;0.25;;;;;;;;5141149;27;11564;-71
2022/05/06 15:58:06;;;;;;;;;1.00;1.00;;;;;;;;5141171;27;10914;-71
2022/05/06 16:00:31;;;;;;;;;2.00;2.00;;;;;;;;5122190;27;13803;-71
2022/05/06 16:02:57;;;;;;;;;2.00;0.00;;;;;;;;5141318;27;9478;-71
2022/05/06 16:05:22;;;;;;;;;0.00;0.00;;;;;;;;5141015;27;8811;-71
2022/05/06 16:07:47;;;;;;;;;1.00;1.00;;;;;;;;5140578;27;8802;-71